createdAt,value
2022-08-09T00:00:13.857Z,13.29
2022-08-09T00:02:47.315Z,13.33
2022-08-09T00:06:18.956Z,13.30
2022-08-09T00:08:09.672Z,13.30
2022-08-09T00:10:36.861Z,13.28
2022-08-09T00:13:17.652Z,13.25
2022-08-09T00:15:58.986Z,13.22
2022-08-09T00:18:29.028Z,13.26
2022-08-09T00:20:55.705Z,13.34
2022-08-09T00:23:56.056Z,13.48
2022-08-09T00:26:11.283Z,13.52
2022-08-09T00:28:40.092Z,13.54
2022-08-09T00:31:09.374Z,13.52
2022-08-09T00:33:55.127Z,13.46
2022-08-09T00:36:29.811Z,13.44
2022-08-09T00:38:57.978Z,13.45
2022-08-09T00:44:19.183Z,13.45
2022-08-09T00:44:24.893Z,13.43
2022-08-09T00:46:56.865Z,13.41
2022-08-09T00:49:28.636Z,13.40
2022-08-09T00:52:05.278Z,13.41
2022-08-09T00:54:36.490Z,13.43
2022-08-09T00:57:10.764Z,13.42
2022-08-09T00:59:46.747Z,13.42
2022-08-09T01:02:21.071Z,13.38
2022-08-09T01:05:22.224Z,13.38
2022-08-09T01:08:25.766Z,13.29
2022-08-09T01:11:18.665Z,13.21
2022-08-09T01:14:00.034Z,13.16
2022-08-09T01:16:35.342Z,13.15
2022-08-09T01:19:17.064Z,13.18
2022-08-09T01:22:35.644Z,13.20
2022-08-09T01:25:24.882Z,13.15
2022-08-09T01:27:57.885Z,13.17
2022-08-09T01:30:35.772Z,13.20
2022-08-09T01:33:17.225Z,13.17
2022-08-09T01:35:43.657Z,13.18
2022-08-09T01:38:16.561Z,13.29
2022-08-09T01:41:17.161Z,13.48
2022-08-09T01:43:50.721Z,13.62
2022-08-09T01:46:26.806Z,13.52
2022-08-09T01:48:57.253Z,13.45
2022-08-09T01:51:32.472Z,13.42
2022-08-09T01:54:02.097Z,13.35
2022-08-09T01:56:33.228Z,13.29
2022-08-09T01:59:03.903Z,13.21
2022-08-09T02:01:59.230Z,13.21
2022-08-09T02:04:21.841Z,13.21
2022-08-09T02:07:18.286Z,13.17
2022-08-09T02:10:06.835Z,13.14
2022-08-09T02:12:35.565Z,13.11
2022-08-09T02:15:06.249Z,13.10
2022-08-09T02:18:09.956Z,13.08
2022-08-09T02:20:26.448Z,13.06
2022-08-09T02:23:08.994Z,13.04
2022-08-09T02:25:42.752Z,13.00
2022-08-09T02:28:29.503Z,12.99
2022-08-09T02:31:12.126Z,13.00
2022-08-09T02:34:06.629Z,13.00
2022-08-09T02:36:39.129Z,13.00
2022-08-09T02:39:33.443Z,13.00
2022-08-09T02:42:05.641Z,13.02
2022-08-09T02:44:37.344Z,13.00
2022-08-09T02:47:08.356Z,13.09
2022-08-09T02:50:01.822Z,13.11
2022-08-09T02:52:36.282Z,13.12
2022-08-09T02:55:20.821Z,13.14
2022-08-09T02:58:32.355Z,13.15
2022-08-09T03:00:57.669Z,13.16
2022-08-09T03:04:12.947Z,13.15
2022-08-09T03:06:15.994Z,13.14
2022-08-09T03:08:47.540Z,13.15
2022-08-09T03:11:30.112Z,13.15
2022-08-09T03:14:06.908Z,13.19
2022-08-09T03:16:37.404Z,13.21
2022-08-09T03:19:14.545Z,13.26
2022-08-09T03:21:57.936Z,13.26
2022-08-09T03:24:25.196Z,13.25
2022-08-09T03:27:10.739Z,13.23
2022-08-09T03:29:56.980Z,13.22
2022-08-09T03:32:26.137Z,13.23
2022-08-09T03:34:54.231Z,13.24
2022-08-09T03:37:56.206Z,13.21
2022-08-09T03:40:13.026Z,13.21
2022-08-09T03:42:43.086Z,13.21
2022-08-09T03:45:10.826Z,13.29
2022-08-09T03:47:40.244Z,13.35
2022-08-09T03:50:10.915Z,13.35
2022-08-09T03:52:40.573Z,13.35
2022-08-09T03:55:10.585Z,13.38
2022-08-09T03:57:53.674Z,13.39
2022-08-09T04:00:29.649Z,13.42
2022-08-09T04:02:58.705Z,13.46
2022-08-09T04:05:27.761Z,13.52
2022-08-09T04:07:57.170Z,13.54
2022-08-09T04:10:29.224Z,13.61
2022-08-09T04:13:01.102Z,13.68
2022-08-09T04:16:17.965Z,13.76
2022-08-09T04:18:19.213Z,13.85
2022-08-09T04:20:48.042Z,13.92
2022-08-09T04:23:16.580Z,14.00
2022-08-09T04:25:44.467Z,14.10
2022-08-09T04:28:16.589Z,14.22
2022-08-09T04:31:05.673Z,14.36
2022-08-09T04:33:52.750Z,14.51
2022-08-09T04:36:28.155Z,14.71
2022-08-09T04:38:55.883Z,14.84
2022-08-09T04:41:23.713Z,14.97
2022-08-09T04:44:06.075Z,15.06
2022-08-09T04:46:37.596Z,15.14
2022-08-09T04:49:30.229Z,15.25
2022-08-09T04:52:07.365Z,15.39
2022-08-09T04:54:34.090Z,15.46
2022-08-09T04:57:00.506Z,15.60
2022-08-09T04:59:30.725Z,15.65
2022-08-09T05:01:57.286Z,15.75
2022-08-09T05:04:23.739Z,15.83
2022-08-09T05:06:58.226Z,16.10
2022-08-09T05:09:24.879Z,16.34
2022-08-09T05:11:51.429Z,16.51
2022-08-09T05:14:18.445Z,16.55
2022-08-09T05:16:58.803Z,16.46
2022-08-09T05:19:38.400Z,16.49
2022-08-09T05:22:35.876Z,16.47
2022-08-09T05:25:02.582Z,16.49
2022-08-09T05:27:30.235Z,16.53
2022-08-09T05:29:57.489Z,16.60
2022-08-09T05:32:25.718Z,16.67
2022-08-09T05:34:52.177Z,16.76
2022-08-09T05:37:18.714Z,16.97
2022-08-09T05:39:45.155Z,17.11
2022-08-09T05:42:16.915Z,17.39
2022-08-09T05:44:50.779Z,17.53
2022-08-09T05:47:17.886Z,17.61
2022-08-09T05:50:25.969Z,17.65
2022-08-09T05:52:32.020Z,17.82
2022-08-09T05:55:03.017Z,17.97
2022-08-09T05:57:51.280Z,18.07
2022-08-09T06:00:23.929Z,18.12
2022-08-09T06:02:54.710Z,18.28
2022-08-09T06:05:50.311Z,18.41
2022-08-09T06:08:11.172Z,18.48
2022-08-09T06:10:37.926Z,18.59
2022-08-09T06:13:12.421Z,18.60
2022-08-09T06:15:46.854Z,18.56
2022-08-09T06:18:13.749Z,18.78
2022-08-09T06:20:42.582Z,18.79
2022-08-09T06:23:11.967Z,18.79
2022-08-09T06:25:42.030Z,18.84
2022-08-09T06:28:09.948Z,19.02
2022-08-09T06:30:36.350Z,19.14
2022-08-09T06:33:30.280Z,19.18
2022-08-09T06:35:57.386Z,19.18
2022-08-09T06:38:37.136Z,19.23
2022-08-09T06:41:04.057Z,19.46
2022-08-09T06:43:34.120Z,19.62
2022-08-09T06:46:06.432Z,19.83
2022-08-09T06:48:37.222Z,19.87
2022-08-09T06:51:11.059Z,19.95
2022-08-09T06:53:38.824Z,19.96
2022-08-09T06:56:06.182Z,20.05
2022-08-09T07:00:47.654Z,20.11
2022-08-09T07:01:19.085Z,19.96
2022-08-09T07:03:51.835Z,20.15
2022-08-09T07:06:19.947Z,20.20
2022-08-09T07:08:46.916Z,20.33
2022-08-09T07:11:17.589Z,20.10
2022-08-09T07:14:04.562Z,20.16
2022-08-09T07:16:42.092Z,20.32
2022-08-09T07:19:22.997Z,20.39
2022-08-09T07:21:57.345Z,20.40
2022-08-09T07:24:32.110Z,20.63
2022-08-09T07:27:10.839Z,20.75
2022-08-09T07:29:50.771Z,20.90
2022-08-09T07:32:19.314Z,21.03
2022-08-09T07:34:49.413Z,21.04
2022-08-09T07:37:18.676Z,20.97
2022-08-09T07:39:48.670Z,20.88
2022-08-09T07:42:15.210Z,21.15
2022-08-09T07:44:51.841Z,21.35
2022-08-09T07:47:19.854Z,21.38
2022-08-09T07:50:05.283Z,21.19
2022-08-09T07:52:35.674Z,21.51
2022-08-09T07:55:08.654Z,21.77
2022-08-09T07:57:35.755Z,21.40
2022-08-09T08:00:03.962Z,21.67
2022-08-09T08:02:30.757Z,21.53
2022-08-09T08:04:57.259Z,21.53
2022-08-09T08:08:43.499Z,21.77
2022-08-09T08:10:11.888Z,21.80
2022-08-09T08:12:43.431Z,21.76
2022-08-09T08:15:12.229Z,21.79
2022-08-09T08:17:55.045Z,22.29
2022-08-09T08:20:30.485Z,22.69
2022-08-09T08:23:01.473Z,22.42
2022-08-09T08:25:43.768Z,22.62
2022-08-09T08:28:11.399Z,22.89
2022-08-09T08:30:41.441Z,22.42
2022-08-09T08:33:12.056Z,22.60
2022-08-09T08:35:58.552Z,22.60
2022-08-09T08:38:27.888Z,22.39
2022-08-09T08:40:55.642Z,22.85
2022-08-09T08:43:23.686Z,22.85
2022-08-09T08:46:31.898Z,23.07
2022-08-09T08:48:51.681Z,23.16
2022-08-09T08:51:20.311Z,23.24
2022-08-09T08:54:02.599Z,23.62
2022-08-09T08:56:33.019Z,23.92
2022-08-09T08:59:01.502Z,24.24
2022-08-09T09:01:53.151Z,24.11
2022-08-09T09:04:27.394Z,23.65
2022-08-09T09:06:56.506Z,24.31
2022-08-09T09:09:41.170Z,24.08
2022-08-09T09:12:16.499Z,24.43
2022-08-09T09:14:44.593Z,25.01
2022-08-09T09:17:11.409Z,24.92
2022-08-09T09:19:43.395Z,25.10
2022-08-09T09:22:12.427Z,23.99
2022-08-09T09:24:46.172Z,24.15
2022-08-09T09:28:03.084Z,25.00
2022-08-09T09:30:14.236Z,25.19
2022-08-09T09:32:43.190Z,25.89
2022-08-09T09:35:13.000Z,25.59
2022-08-09T09:37:45.678Z,24.69
2022-08-09T09:40:12.463Z,24.66
2022-08-09T09:42:39.767Z,24.77
2022-08-09T09:45:14.419Z,24.97
2022-08-09T09:47:58.672Z,25.25
2022-08-09T09:50:50.841Z,25.84
2022-08-09T09:53:43.640Z,26.81
2022-08-09T09:56:08.239Z,25.74
2022-08-09T09:58:47.723Z,26.07
2022-08-09T10:01:37.051Z,26.67
2022-08-09T10:04:09.702Z,26.72
2022-08-09T10:06:42.932Z,26.05
2022-08-09T10:09:11.857Z,25.94
2022-08-09T10:12:12.378Z,26.10
2022-08-09T10:14:48.035Z,25.30
2022-08-09T10:17:39.791Z,26.50
2022-08-09T10:20:04.126Z,27.09
2022-08-09T10:22:35.264Z,26.06
2022-08-09T10:25:10.900Z,24.91
2022-08-09T10:27:56.002Z,24.63
2022-08-09T10:34:08.256Z,26.36
2022-08-09T10:36:00.745Z,25.75
2022-08-09T10:38:54.314Z,26.27
2022-08-09T10:41:15.459Z,25.96
2022-08-09T10:43:50.655Z,25.77
2022-08-09T10:46:28.089Z,26.73
2022-08-09T10:49:14.730Z,27.74
2022-08-09T10:52:05.404Z,27.38
2022-08-09T10:54:32.465Z,27.33
2022-08-09T10:57:10.818Z,27.91
2022-08-09T12:23:08.129Z,24.47
2022-08-09T12:25:38.402Z,24.48
2022-08-09T12:29:11.530Z,24.20
2022-08-09T12:31:10.958Z,24.11
2022-08-09T12:34:00.871Z,24.55
2022-08-09T12:36:33.765Z,24.80
2022-08-09T12:39:02.637Z,25.05
2022-08-09T12:41:38.321Z,25.15
2022-08-09T12:44:10.403Z,24.40
2022-08-09T12:46:41.112Z,24.28
2022-08-09T12:49:08.701Z,24.48
2022-08-09T12:52:01.159Z,24.62
2022-08-09T12:54:21.940Z,25.11
2022-08-09T12:56:51.353Z,25.11
2022-08-09T12:59:21.657Z,24.79
2022-08-09T13:02:00.291Z,24.77
2022-08-09T13:04:36.913Z,25.14
2022-08-09T13:07:14.749Z,24.96
2022-08-09T13:09:43.430Z,25.29
2022-08-09T13:12:22.194Z,25.75
2022-08-09T13:14:53.857Z,25.89
2022-08-09T13:17:43.863Z,25.27
2022-08-09T13:20:14.016Z,24.75
2022-08-09T13:23:05.583Z,24.94
2022-08-09T13:25:54.334Z,25.16
2022-08-09T13:28:33.753Z,25.02
2022-08-09T13:32:13.951Z,24.94
2022-08-09T13:33:54.466Z,25.29
2022-08-09T13:36:38.385Z,25.84
2022-08-09T13:41:55.139Z,26.62
2022-08-09T13:42:01.516Z,27.13
2022-08-09T13:44:28.976Z,27.51
2022-08-09T13:47:26.615Z,26.31
2022-08-09T13:49:57.899Z,25.07
2022-08-09T13:52:28.117Z,24.52
2022-08-09T13:54:59.834Z,24.20
2022-08-09T13:57:37.387Z,24.14
2022-08-09T14:00:13.917Z,23.82
2022-08-09T14:03:02.331Z,23.67
2022-08-09T14:05:58.696Z,23.72
2022-08-09T14:08:17.605Z,23.97
2022-08-09T14:10:50.384Z,23.90
2022-08-09T14:13:21.613Z,23.98
2022-08-09T14:16:08.971Z,23.95
2022-08-09T14:18:37.130Z,23.88
2022-08-09T14:21:03.532Z,24.07
2022-08-09T14:23:40.738Z,24.08
2022-08-09T14:26:20.434Z,23.98
2022-08-09T14:28:46.978Z,24.28
2022-08-09T14:31:13.851Z,24.32
2022-08-09T14:33:40.258Z,24.33
2022-08-09T14:36:19.841Z,24.45
2022-08-09T14:38:52.939Z,24.72
2022-08-09T14:41:34.740Z,24.37
2022-08-09T14:44:06.572Z,24.62
2022-08-09T14:46:58.475Z,24.67
2022-08-09T14:49:23.588Z,24.82
2022-08-09T14:51:50.408Z,24.81
2022-08-09T14:54:16.943Z,24.71
2022-08-09T14:56:57.900Z,24.61
2022-08-09T14:59:25.236Z,24.56
2022-08-09T15:01:53.596Z,24.55
2022-08-09T15:04:20.009Z,24.74
2022-08-09T15:06:49.916Z,24.66
2022-08-09T15:10:03.602Z,24.52
2022-08-09T15:12:04.742Z,24.71
2022-08-09T15:14:34.377Z,24.98
2022-08-09T15:17:00.875Z,25.20
2022-08-09T15:19:35.913Z,24.93
2022-08-09T15:22:03.261Z,24.89
2022-08-09T15:24:30.001Z,25.09
2022-08-09T15:26:56.498Z,25.25
2022-08-09T15:30:59.254Z,25.34
2022-08-09T15:32:39.090Z,25.34
2022-08-09T15:35:01.109Z,25.27
2022-08-09T15:37:56.713Z,25.12
2022-08-09T15:40:31.972Z,24.97
2022-08-09T15:43:01.875Z,24.67
2022-08-09T15:45:29.401Z,24.77
2022-08-09T15:48:05.425Z,24.72
2022-08-09T15:50:44.003Z,24.52
2022-08-09T15:54:02.401Z,24.47
2022-08-09T15:56:20.985Z,24.67
2022-08-09T15:58:43.570Z,24.81
2022-08-09T16:01:10.187Z,24.91
2022-08-09T16:03:38.745Z,24.90
2022-08-09T16:06:31.449Z,24.95
2022-08-09T16:08:56.051Z,24.84
2022-08-09T16:11:22.777Z,24.69
2022-08-09T16:14:03.302Z,24.65
2022-08-09T16:16:32.724Z,24.68
2022-08-09T16:19:01.412Z,24.71
2022-08-09T16:21:31.713Z,24.59
2022-08-09T16:24:02.695Z,24.34
2022-08-09T16:26:35.085Z,24.41
2022-08-09T16:29:06.071Z,24.47
2022-08-09T16:32:10.343Z,24.45
2022-08-09T16:34:23.924Z,24.48
2022-08-09T16:36:50.411Z,24.57
2022-08-09T16:39:16.903Z,24.46
2022-08-09T16:42:03.527Z,24.32
2022-08-09T16:44:31.770Z,24.40
2022-08-09T16:47:03.868Z,24.34
2022-08-09T16:50:29.325Z,24.26
2022-08-09T16:52:17.280Z,24.25
2022-08-09T16:54:45.892Z,24.28
2022-08-09T16:57:12.326Z,24.29
2022-08-09T16:59:44.103Z,24.24
2022-08-09T17:02:17.809Z,24.08
2022-08-09T17:04:50.881Z,24.02
2022-08-09T17:08:44.723Z,23.93
2022-08-09T17:10:06.483Z,23.77
2022-08-09T17:12:35.607Z,23.68
2022-08-09T17:15:18.228Z,23.56
2022-08-09T17:17:51.416Z,23.45
2022-08-09T17:20:32.308Z,23.38
2022-08-09T17:23:04.955Z,23.27
2022-08-09T17:25:37.200Z,23.18
2022-08-09T17:28:06.097Z,23.04
2022-08-09T17:30:33.895Z,23.01
2022-08-09T17:33:05.649Z,22.91
2022-08-09T17:35:49.100Z,22.85
2022-08-09T17:38:34.038Z,22.70
2022-08-09T17:41:03.054Z,22.63
2022-08-09T17:43:33.739Z,22.60
2022-08-09T17:46:02.606Z,22.50
2022-08-09T17:48:30.978Z,22.45
2022-08-09T17:51:06.556Z,22.39
2022-08-09T17:53:43.021Z,22.26
2022-08-09T17:56:10.030Z,22.19
2022-08-09T17:58:36.574Z,22.11
2022-08-09T18:01:03.229Z,22.00
2022-08-09T18:03:30.367Z,21.87
2022-08-09T18:05:58.191Z,21.80
2022-08-09T18:08:28.003Z,21.74
2022-08-09T18:11:01.859Z,21.65
2022-08-09T18:13:43.073Z,21.52
2022-08-09T18:16:16.943Z,21.38
2022-08-09T18:18:56.125Z,21.22
2022-08-09T18:21:24.211Z,21.09
2022-08-09T18:24:09.633Z,20.99
2022-08-09T18:26:38.360Z,20.84
2022-08-09T18:30:42.269Z,20.78
2022-08-09T18:32:00.126Z,20.74
2022-08-09T18:34:28.983Z,20.68
2022-08-09T18:36:55.585Z,20.59
2022-08-09T18:39:24.166Z,20.48
2022-08-09T18:41:53.040Z,20.34
2022-08-09T18:44:23.002Z,20.21
2022-08-09T18:47:07.538Z,20.10
2022-08-09T18:49:41.674Z,20.00
2022-08-09T18:52:11.617Z,19.93
2022-08-09T18:54:39.066Z,19.83
2022-08-09T18:57:08.762Z,19.72
2022-08-09T18:59:48.848Z,19.57
2022-08-09T19:02:18.691Z,19.40
2022-08-09T19:04:47.542Z,19.33
2022-08-09T19:07:16.245Z,19.18
2022-08-09T19:10:16.986Z,19.07
2022-08-09T19:12:32.320Z,18.98
2022-08-09T19:15:06.276Z,18.89
2022-08-09T19:17:55.032Z,18.78
2022-08-09T19:20:19.457Z,18.66
2022-08-09T19:22:54.248Z,18.57
2022-08-09T19:25:41.951Z,18.48
2022-08-09T19:28:08.500Z,18.40
2022-08-09T19:30:40.339Z,18.37
2022-08-09T19:33:17.960Z,18.30
2022-08-09T19:35:56.911Z,18.19
2022-08-09T19:38:25.619Z,18.10
2022-08-09T19:40:53.046Z,18.01
2022-08-09T19:43:57.868Z,17.91
2022-08-09T19:46:08.553Z,17.84
2022-08-09T19:49:01.625Z,17.75
2022-08-09T19:51:27.769Z,17.67
2022-08-09T19:53:57.874Z,17.63
2022-08-09T19:56:29.037Z,17.61
2022-08-09T19:59:18.505Z,17.60
2022-08-09T20:01:52.497Z,17.57
2022-08-09T20:04:36.433Z,17.52
2022-08-09T20:07:06.281Z,17.45
2022-08-09T20:09:45.184Z,17.39
2022-08-09T20:12:29.947Z,17.35
2022-08-09T20:15:04.469Z,17.36
2022-08-09T20:17:41.449Z,17.31
2022-08-09T20:20:14.588Z,17.28
2022-08-09T20:22:44.569Z,17.24
2022-08-09T20:25:12.860Z,17.18
2022-08-09T20:27:43.142Z,17.12
2022-08-09T20:30:12.740Z,17.05
2022-08-09T20:32:45.453Z,17.05
2022-08-09T20:35:15.953Z,17.10
2022-08-09T20:38:22.171Z,17.07
2022-08-09T20:40:30.174Z,17.06
2022-08-09T20:42:59.799Z,17.04
2022-08-09T20:46:01.508Z,17.02
2022-08-09T20:48:13.368Z,16.99
2022-08-09T20:50:49.715Z,16.93
2022-08-09T20:53:36.770Z,16.84
2022-08-09T20:56:05.646Z,16.81
2022-08-09T20:58:33.204Z,16.78
2022-08-09T21:01:14.024Z,16.73
2022-08-09T21:05:49.486Z,16.67
2022-08-09T21:06:35.153Z,16.62
2022-08-09T21:09:02.244Z,16.60
2022-08-09T21:14:15.489Z,16.50
2022-08-09T21:16:43.770Z,16.46
2022-08-09T21:20:19.213Z,16.39
2022-08-09T21:21:59.123Z,16.30
2022-08-09T21:24:28.845Z,16.26
2022-08-09T21:27:01.072Z,16.22
2022-08-09T21:29:49.307Z,16.15
2022-08-09T21:32:18.635Z,16.05
2022-08-09T21:34:48.608Z,16.01
2022-08-09T21:37:18.024Z,16.00
2022-08-09T21:39:45.100Z,15.97
2022-08-09T21:42:16.538Z,15.95
2022-08-09T21:44:43.645Z,15.93
2022-08-09T21:47:11.224Z,15.96
2022-08-09T21:49:44.379Z,15.89
2022-08-09T21:52:16.342Z,15.86
2022-08-09T21:54:46.089Z,15.86
2022-08-09T21:57:37.170Z,15.79
2022-08-09T21:59:59.301Z,15.75
2022-08-09T22:02:36.180Z,15.75
2022-08-09T22:05:16.822Z,15.72
2022-08-09T22:07:52.090Z,15.66
2022-08-09T22:10:22.901Z,15.61
2022-08-09T22:12:50.323Z,15.57
2022-08-09T22:15:16.945Z,15.51
2022-08-09T22:17:46.214Z,15.45
2022-08-09T22:20:17.058Z,15.41
2022-08-09T22:22:48.776Z,15.36
2022-08-09T22:26:06.056Z,15.24
2022-08-09T22:28:01.639Z,15.10
2022-08-09T22:30:33.811Z,15.05
2022-08-09T22:33:00.223Z,15.00
2022-08-09T22:36:02.531Z,14.94
2022-08-09T22:38:15.020Z,14.93
2022-08-09T22:40:49.276Z,14.92
2022-08-09T22:44:01.691Z,14.97
2022-08-09T22:48:10.228Z,15.08
2022-08-09T22:49:01.905Z,15.12
2022-08-09T22:51:38.333Z,15.10
2022-08-09T22:54:04.931Z,15.10
2022-08-09T22:56:34.738Z,15.10
2022-08-09T22:59:06.055Z,15.10
2022-08-09T23:01:51.352Z,15.08
2022-08-09T23:04:18.051Z,15.09
2022-08-09T23:07:03.269Z,15.07
2022-08-09T23:09:37.856Z,15.07
2022-08-09T23:12:04.549Z,15.06
2022-08-09T23:14:41.694Z,15.04
2022-08-09T23:17:09.599Z,15.01
2022-08-09T23:20:06.883Z,15.00
2022-08-09T23:22:23.899Z,14.97
2022-08-09T23:24:50.314Z,14.92
2022-08-09T23:27:16.715Z,14.92
2022-08-09T23:29:43.323Z,14.89
2022-08-09T23:32:09.855Z,14.88
2022-08-09T23:34:36.781Z,14.83
2022-08-09T23:37:04.062Z,14.81
2022-08-09T23:39:30.499Z,14.83
2022-08-09T23:41:56.974Z,14.82
2022-08-09T23:44:23.369Z,14.86
2022-08-09T23:46:52.734Z,14.85
2022-08-09T23:49:24.580Z,14.84
2022-08-09T23:51:52.044Z,14.88
2022-08-09T23:54:20.928Z,14.94
2022-08-09T23:56:56.246Z,14.94
2022-08-09T23:59:24.970Z,14.88
